Terminal Aerodrome Forecast
Issued by NWS

Home | Current Version | Previous Version | Text Only | Print | Product List | Glossary On
Versions: 1 2 3 4 5 6 7 8 9 10 11 12 13
200
FTPA31 PHFO 270209 AAA
TAFHJH
TAF AMD
PHJH 270209Z 2702/2724 04017G25KT P6SM SCT060
     FM270500 04008KT P6SM VCSH SCT025 BKN045
     FM272000 06015G20KT P6SM SCT060
      AMD NOT SKED AFT 270400=

USA.gov is the U.S. government's official web portal to all federal, state and local government web resources and services.